Benevides, Brazil
Current Conditions -  °F | °C
As of 9:00 PM on Tuesday 25 Nov 2014 (Local Time) from SBBE Reporting Station
Clear Clear  
Wind Chill: 81°   Ceiling: Unl
Heat Index: 85°   Visibility: 6mi
Dew Point: 72°   Wind: 13mph
Humidity: 74%   Direction: 60°ENE
Pressure: 29.8"   Gusts: NA
Location:  1.36°S, 48.24°W
Report Text: SBBE 260000Z 06011KT CAVOK 27/22 Q1009
Loading
Personal Weather Stations






























Interactive Weather Map New forecast layout! Learn more

10-Day Weather Forecast

Advertisements
Track Severe Weather on mobile